createdAt,value
2018-03-23T00:00:17.334Z,99.99
2018-03-23T00:01:17.227Z,99.99
2018-03-23T00:02:17.124Z,99.99
2018-03-23T00:03:17.034Z,99.99
2018-03-23T00:04:16.918Z,99.99
2018-03-23T00:05:16.814Z,99.99
2018-03-23T00:06:16.710Z,99.99
2018-03-23T00:07:16.607Z,99.99
2018-03-23T00:08:16.504Z,99.99
2018-03-23T00:09:16.406Z,99.99
2018-03-23T00:10:16.291Z,99.99
2018-03-23T00:11:16.194Z,99.99
2018-03-23T00:12:16.091Z,99.99
2018-03-23T00:13:15.987Z,99.99
2018-03-23T00:14:15.884Z,99.99
2018-03-23T00:15:15.780Z,99.99
2018-03-23T00:16:15.677Z,99.99
2018-03-23T00:17:15.574Z,99.99
2018-03-23T00:18:15.475Z,99.99
2018-03-23T00:19:15.367Z,99.99
2018-03-23T00:20:15.264Z,99.99
2018-03-23T00:21:15.160Z,99.99
2018-03-23T00:22:15.046Z,99.99
2018-03-23T00:23:14.943Z,99.99
2018-03-23T00:24:14.840Z,99.99
2018-03-23T00:25:14.735Z,99.99
2018-03-23T00:26:14.632Z,99.99
2018-03-23T00:27:14.529Z,99.99
2018-03-23T00:28:14.426Z,99.99
2018-03-23T00:29:14.339Z,99.99
2018-03-23T00:30:14.219Z,99.99
2018-03-23T00:31:14.116Z,99.99
2018-03-23T00:32:14.013Z,99.99
2018-03-23T00:33:13.912Z,99.99
2018-03-23T00:34:13.807Z,99.99
2018-03-23T00:35:13.703Z,99.99
2018-03-23T00:36:13.599Z,99.99
2018-03-23T00:37:13.496Z,99.99
2018-03-23T00:38:13.392Z,99.99
2018-03-23T00:39:13.289Z,99.99
2018-03-23T00:40:13.186Z,99.99
2018-03-23T00:41:13.083Z,99.99
2018-03-23T00:42:12.985Z,99.99
2018-03-23T00:43:12.866Z,99.99
2018-03-23T00:44:12.761Z,99.99
2018-03-23T00:45:12.661Z,99.99
2018-03-23T00:46:12.553Z,99.99
2018-03-23T00:47:12.462Z,99.99
2018-03-23T00:48:12.346Z,99.99
2018-03-23T00:49:12.244Z,99.99
2018-03-23T00:50:12.140Z,99.99
2018-03-23T00:51:12.036Z,99.99
2018-03-23T00:52:11.932Z,99.99
2018-03-23T00:53:11.829Z,99.99
2018-03-23T00:54:11.725Z,99.99
2018-03-23T00:55:11.623Z,99.99
2018-03-23T00:56:11.519Z,99.99
2018-03-23T00:57:11.416Z,99.99
2018-03-23T00:58:11.313Z,99.99
2018-03-23T00:59:11.210Z,99.99
2018-03-23T01:00:11.119Z,99.99
2018-03-23T01:01:11.002Z,99.99
2018-03-23T01:02:10.904Z,99.99
2018-03-23T01:03:10.796Z,99.99
2018-03-23T01:04:10.693Z,99.99
2018-03-23T01:05:10.602Z,99.99
2018-03-23T01:06:10.475Z,99.99
2018-03-23T01:07:10.371Z,99.99
2018-03-23T01:08:10.269Z,99.99
2018-03-23T01:09:10.168Z,99.99
2018-03-23T01:10:10.061Z,99.99
2018-03-23T01:11:09.958Z,99.99
2018-03-23T01:12:09.854Z,99.99
2018-03-23T01:13:09.751Z,99.99
2018-03-23T01:14:09.648Z,99.99
2018-03-23T01:15:09.545Z,99.99
2018-03-23T01:16:09.441Z,99.99
2018-03-23T01:17:09.339Z,99.99
2018-03-23T01:18:09.239Z,99.99
2018-03-23T01:19:09.131Z,99.99
2018-03-23T01:20:09.028Z,99.99
2018-03-23T01:21:08.924Z,99.99
2018-03-23T01:22:08.822Z,99.99
2018-03-23T01:23:08.719Z,99.99
2018-03-23T01:24:08.615Z,99.99
2018-03-23T01:25:08.500Z,99.99
2018-03-23T01:26:08.397Z,99.99
2018-03-23T01:27:08.305Z,99.99
2018-03-23T01:28:08.187Z,99.99
2018-03-23T01:29:08.084Z,99.99
2018-03-23T01:30:07.981Z,99.99
2018-03-23T01:31:07.879Z,99.99
2018-03-23T01:32:07.775Z,99.99
2018-03-23T01:33:07.672Z,99.99
2018-03-23T01:34:07.568Z,99.99
2018-03-23T01:35:07.465Z,99.99
2018-03-23T01:36:07.349Z,99.99
2018-03-23T01:37:07.255Z,99.99
2018-03-23T01:38:07.142Z,99.99
2018-03-23T01:39:07.040Z,99.99
2018-03-23T01:40:06.936Z,99.99
2018-03-23T01:41:06.834Z,99.99
2018-03-23T01:42:06.730Z,99.99
2018-03-23T01:43:06.632Z,99.99
2018-03-23T01:44:06.512Z,99.99
2018-03-23T01:45:06.407Z,99.99
2018-03-23T01:46:06.303Z,99.99
2018-03-23T01:47:06.201Z,99.99
2018-03-23T01:48:06.096Z,99.99
2018-03-23T01:49:05.998Z,99.99
2018-03-23T01:50:05.893Z,99.99
2018-03-23T01:51:05.786Z,99.99
2018-03-23T01:52:05.933Z,99.99
2018-03-23T01:53:05.580Z,99.99
2018-03-23T01:54:05.464Z,99.99
2018-03-23T01:55:05.362Z,99.99
2018-03-23T01:56:05.259Z,99.99
2018-03-23T01:57:05.156Z,99.99
2018-03-23T01:58:05.052Z,99.99
2018-03-23T01:59:04.949Z,99.99
2018-03-23T02:00:04.845Z,99.99
2018-03-23T02:01:04.742Z,99.99
2018-03-23T02:02:04.926Z,99.99
2018-03-23T02:03:04.523Z,99.99
2018-03-23T02:04:04.419Z,99.99
2018-03-23T02:05:04.316Z,99.99
2018-03-23T02:06:04.212Z,99.99
2018-03-23T02:07:04.108Z,99.99
2018-03-23T02:08:04.005Z,99.99
2018-03-23T02:09:03.901Z,99.99
2018-03-23T02:10:03.798Z,99.99
2018-03-23T02:11:03.683Z,99.99
2018-03-23T02:12:03.581Z,99.99
2018-03-23T02:13:03.478Z,99.99
2018-03-23T02:14:03.374Z,99.99
2018-03-23T02:15:03.270Z,99.99
2018-03-23T02:16:03.166Z,99.99
2018-03-23T02:17:03.063Z,99.99
2018-03-23T02:18:02.961Z,99.99
2018-03-23T02:19:02.845Z,99.99
2018-03-23T02:20:02.741Z,99.99
2018-03-23T02:21:02.637Z,99.99
2018-03-23T02:22:02.834Z,99.99
2018-03-23T02:23:02.431Z,99.99
2018-03-23T02:24:02.328Z,99.99
2018-03-23T02:25:02.223Z,99.99
2018-03-23T02:26:02.120Z,99.99
2018-03-23T02:27:02.017Z,99.99
2018-03-23T02:28:01.902Z,99.99
2018-03-23T02:29:01.799Z,99.99
2018-03-23T02:30:01.697Z,99.99
2018-03-23T02:31:01.593Z,99.99
2018-03-23T02:32:01.496Z,99.99
2018-03-23T02:33:01.387Z,99.99
2018-03-23T02:34:01.274Z,99.99
2018-03-23T02:35:01.180Z,99.99
2018-03-23T02:36:01.077Z,99.99
2018-03-23T02:37:00.962Z,99.99
2018-03-23T02:38:00.859Z,99.99
2018-03-23T02:39:00.752Z,99.99
2018-03-23T02:40:00.648Z,99.99
2018-03-23T02:41:00.546Z,99.99
2018-03-23T02:42:00.442Z,99.99
2018-03-23T02:43:00.340Z,99.99
2018-03-23T02:44:00.238Z,99.99
2018-03-23T02:45:00.122Z,99.99
2018-03-23T02:46:00.028Z,99.99
2018-03-23T02:46:59.915Z,99.99
2018-03-23T02:47:59.811Z,99.99
2018-03-23T02:48:59.708Z,99.99
2018-03-23T02:49:59.605Z,99.99
2018-03-23T02:50:59.501Z,99.99
2018-03-23T02:51:59.399Z,99.99
2018-03-23T02:52:59.283Z,99.99
2018-03-23T02:53:59.178Z,99.99
2018-03-23T02:54:59.138Z,99.99
2018-03-23T02:55:58.972Z,99.99
2018-03-23T02:56:58.869Z,99.99
2018-03-23T02:57:58.766Z,99.99
2018-03-23T02:58:58.662Z,99.99
2018-03-23T02:59:58.559Z,99.99
2018-03-23T03:00:58.444Z,99.99
2018-03-23T03:01:58.342Z,99.99
2018-03-23T03:02:58.236Z,99.99
2018-03-23T03:03:58.133Z,99.99
2018-03-23T03:04:58.030Z,99.99
2018-03-23T03:05:57.927Z,99.99
2018-03-23T03:06:58.072Z,99.99
2018-03-23T03:07:57.724Z,99.99
2018-03-23T03:08:57.603Z,99.99
2018-03-23T03:09:57.499Z,99.99
2018-03-23T03:10:57.397Z,99.99
2018-03-23T03:11:57.292Z,99.99
2018-03-23T03:12:57.191Z,99.99
2018-03-23T03:13:57.100Z,99.99
2018-03-23T03:14:56.982Z,99.99
2018-03-23T03:15:56.879Z,99.99
2018-03-23T03:16:56.768Z,99.99
2018-03-23T03:17:56.662Z,99.99
2018-03-23T03:18:56.558Z,99.99
2018-03-23T03:19:56.455Z,99.99
2018-03-23T03:20:56.351Z,99.99
2018-03-23T03:21:56.248Z,99.99
2018-03-23T03:22:56.144Z,99.99
2018-03-23T03:23:56.029Z,99.99
2018-03-23T03:24:55.926Z,99.99
2018-03-23T03:25:55.821Z,99.99
2018-03-23T03:26:55.717Z,99.99
2018-03-23T03:27:55.621Z,99.99
2018-03-23T03:28:55.512Z,99.99
2018-03-23T03:29:55.408Z,99.99
2018-03-23T03:30:55.307Z,99.99
2018-03-23T03:31:55.190Z,99.99
2018-03-23T03:32:55.086Z,99.99
2018-03-23T03:33:54.983Z,99.99
2018-03-23T03:34:54.880Z,99.99
2018-03-23T03:35:54.779Z,99.99
2018-03-23T03:36:54.673Z,99.99
2018-03-23T03:37:54.570Z,99.99
2018-03-23T03:38:54.454Z,99.99
2018-03-23T03:39:54.350Z,99.99
2018-03-23T03:40:54.247Z,99.99
2018-03-23T03:41:54.146Z,99.99
2018-03-23T03:42:54.045Z,99.99
2018-03-23T03:43:53.937Z,99.99
2018-03-23T03:44:53.835Z,99.99
2018-03-23T03:45:53.730Z,99.99
2018-03-23T03:46:53.622Z,99.99
2018-03-23T03:47:53.512Z,99.99
2018-03-23T03:48:53.407Z,99.99
2018-03-23T03:49:53.305Z,99.99
2018-03-23T03:50:53.202Z,99.99
2018-03-23T03:51:53.099Z,99.99
2018-03-23T03:52:52.994Z,99.99
2018-03-23T03:53:52.880Z,99.99
2018-03-23T03:54:52.787Z,99.99
2018-03-23T03:55:52.676Z,99.99
2018-03-23T03:56:52.819Z,99.99
2018-03-23T03:57:52.465Z,99.99
2018-03-23T03:58:52.362Z,99.99
2018-03-23T03:59:52.259Z,99.99
2018-03-23T04:00:52.155Z,99.99
2018-03-23T04:01:52.052Z,99.99
2018-03-23T04:02:51.938Z,99.99
2018-03-23T04:03:51.837Z,99.99
2018-03-23T04:04:51.731Z,99.99
2018-03-23T04:05:51.627Z,99.99
2018-03-23T04:06:51.774Z,99.99
2018-03-23T04:07:51.420Z,99.99
2018-03-23T04:08:51.317Z,99.99
2018-03-23T04:09:51.202Z,99.99
2018-03-23T04:10:51.098Z,99.99
2018-03-23T04:11:50.994Z,99.99
2018-03-23T04:12:50.890Z,99.99
2018-03-23T04:13:50.787Z,99.99
2018-03-23T04:14:50.685Z,99.99
2018-03-23T04:15:50.595Z,99.99
2018-03-23T04:16:50.477Z,99.99
2018-03-23T04:17:50.373Z,99.99
2018-03-23T04:18:50.258Z,99.99
2018-03-23T04:19:50.156Z,99.99
2018-03-23T04:20:50.052Z,99.99
2018-03-23T04:21:49.949Z,99.99
2018-03-23T04:22:49.847Z,99.99
2018-03-23T04:23:49.742Z,99.99
2018-03-23T04:24:49.639Z,99.99
2018-03-23T04:25:49.541Z,99.99
2018-03-23T04:26:49.421Z,99.99
2018-03-23T04:27:49.344Z,99.99
2018-03-23T04:28:49.212Z,99.99
2018-03-23T04:29:49.109Z,99.99
2018-03-23T04:30:49.006Z,99.99
2018-03-23T04:31:48.903Z,99.99
2018-03-23T04:32:48.799Z,99.99
2018-03-23T04:33:48.696Z,99.99
2018-03-23T04:34:48.593Z,99.99
2018-03-23T04:35:48.489Z,99.99
2018-03-23T04:36:48.381Z,99.99
2018-03-23T04:37:48.275Z,99.99
2018-03-23T04:38:48.168Z,99.99
2018-03-23T04:39:48.065Z,99.99
2018-03-23T04:40:47.962Z,99.99
2018-03-23T04:41:48.108Z,99.99
2018-03-23T04:42:47.755Z,99.99
2018-03-23T04:43:47.652Z,99.99
2018-03-23T04:44:47.548Z,99.99
2018-03-23T04:45:47.432Z,99.99
2018-03-23T04:46:47.342Z,99.99
2018-03-23T04:47:47.224Z,99.99
2018-03-23T04:48:47.121Z,99.99
2018-03-23T04:49:47.018Z,99.99
2018-03-23T04:50:46.915Z,99.99
2018-03-23T04:51:46.810Z,99.99
2018-03-23T04:52:46.708Z,99.99
2018-03-23T04:53:46.604Z,99.99
2018-03-23T04:54:46.501Z,99.99
2018-03-23T04:55:46.387Z,99.99
2018-03-23T04:56:46.283Z,99.99
2018-03-23T04:57:46.179Z,99.99
2018-03-23T04:58:46.076Z,99.99
2018-03-23T04:59:45.978Z,99.99
2018-03-23T05:00:45.869Z,99.99
2018-03-23T05:01:46.016Z,99.99
2018-03-23T05:02:45.666Z,99.99
2018-03-23T05:03:45.559Z,99.99
2018-03-23T05:04:45.457Z,99.99
2018-03-23T05:05:45.340Z,99.99
2018-03-23T05:06:45.245Z,99.99
2018-03-23T05:07:45.133Z,99.99
2018-03-23T05:08:45.043Z,99.99
2018-03-23T05:09:44.927Z,99.99
2018-03-23T05:10:44.826Z,99.99
2018-03-23T05:11:44.720Z,99.99
2018-03-23T05:12:44.617Z,99.99
2018-03-23T05:13:44.519Z,99.99
2018-03-23T05:14:44.409Z,99.99
2018-03-23T05:15:44.307Z,99.99
2018-03-23T05:16:44.193Z,99.99
2018-03-23T05:17:44.094Z,99.99
2018-03-23T05:18:43.985Z,99.99
2018-03-23T05:19:43.882Z,99.99
2018-03-23T05:20:43.779Z,99.99
2018-03-23T05:21:43.676Z,99.99
2018-03-23T05:22:43.575Z,99.99
2018-03-23T05:23:43.469Z,99.99
2018-03-23T05:24:43.371Z,99.99
2018-03-23T05:25:43.261Z,99.99
2018-03-23T05:26:43.159Z,99.99
2018-03-23T05:27:43.046Z,99.99
2018-03-23T05:28:42.939Z,99.99
2018-03-23T05:29:42.835Z,99.99
2018-03-23T05:30:42.737Z,99.99
2018-03-23T05:31:42.642Z,99.99
2018-03-23T05:32:42.526Z,99.99
2018-03-23T05:33:42.421Z,99.99
2018-03-23T05:34:42.318Z,99.99
2018-03-23T05:35:42.215Z,99.99
2018-03-23T05:36:42.112Z,99.99
2018-03-23T05:37:42.009Z,99.99
2018-03-23T05:38:41.905Z,99.99
2018-03-23T05:39:41.802Z,99.99
2018-03-23T05:40:41.737Z,99.99
2018-03-23T05:41:41.584Z,99.99
2018-03-23T05:42:41.483Z,99.99
2018-03-23T05:43:41.377Z,99.99
2018-03-23T05:44:41.273Z,99.99
2018-03-23T05:45:41.170Z,99.99
2018-03-23T05:46:41.066Z,99.99
2018-03-23T05:47:40.964Z,99.99
2018-03-23T05:48:40.864Z,99.99
2018-03-23T05:49:40.757Z,99.99
2018-03-23T05:50:40.654Z,99.99
2018-03-23T05:51:40.552Z,99.99
2018-03-23T05:52:40.448Z,99.99
2018-03-23T05:53:40.332Z,99.99
2018-03-23T05:54:40.228Z,99.99
2018-03-23T05:55:40.124Z,99.99
2018-03-23T05:56:40.021Z,99.99
2018-03-23T05:57:39.931Z,99.99
2018-03-23T05:58:39.814Z,99.99
2018-03-23T05:59:39.710Z,99.99
2018-03-23T06:00:39.612Z,99.99
2018-03-23T06:01:39.504Z,99.99
2018-03-23T06:02:39.401Z,99.99
2018-03-23T06:03:39.297Z,99.99
2018-03-23T06:04:39.194Z,99.99
2018-03-23T06:05:39.091Z,99.99
2018-03-23T06:06:38.987Z,99.99
2018-03-23T06:07:38.883Z,99.99
2018-03-23T06:08:38.768Z,99.99
2018-03-23T06:09:38.666Z,99.99
2018-03-23T06:10:38.563Z,99.99
2018-03-23T06:11:38.459Z,99.99
2018-03-23T06:12:38.356Z,99.99
2018-03-23T06:13:38.257Z,99.99
2018-03-23T06:14:38.150Z,99.99
2018-03-23T06:15:38.046Z,99.99
2018-03-23T06:16:37.944Z,99.99
2018-03-23T06:17:37.841Z,99.99
2018-03-23T06:18:37.736Z,99.99
2018-03-23T06:19:37.632Z,99.99
2018-03-23T06:20:37.530Z,99.99
2018-03-23T06:21:37.414Z,99.99
2018-03-23T06:22:37.324Z,99.99
2018-03-23T06:23:37.207Z,99.99
2018-03-23T06:24:37.105Z,99.99
2018-03-23T06:25:36.999Z,99.99
2018-03-23T06:26:37.146Z,99.99
2018-03-23T06:27:36.795Z,99.99
2018-03-23T06:28:36.689Z,99.99
2018-03-23T06:29:36.586Z,99.99
2018-03-23T06:30:36.482Z,99.99
2018-03-23T06:31:36.380Z,99.99
2018-03-23T06:32:36.276Z,99.99
2018-03-23T06:33:36.188Z,99.99
2018-03-23T06:34:36.069Z,99.99
2018-03-23T06:35:35.978Z,99.99
2018-03-23T06:36:35.862Z,99.99
2018-03-23T06:37:35.759Z,99.99
2018-03-23T06:38:35.664Z,99.99
2018-03-23T06:39:35.553Z,99.99
2018-03-23T06:40:35.449Z,99.99
2018-03-23T06:41:35.337Z,99.99
2018-03-23T06:42:35.246Z,99.99
2018-03-23T06:43:35.134Z,99.99
2018-03-23T06:44:35.025Z,99.99
2018-03-23T06:45:34.921Z,99.99
2018-03-23T06:46:34.817Z,99.99
2018-03-23T06:47:34.714Z,99.99
2018-03-23T06:48:34.622Z,99.99
2018-03-23T06:49:34.511Z,99.99
2018-03-23T06:50:34.410Z,99.99
2018-03-23T06:51:34.305Z,99.99
2018-03-23T06:52:34.198Z,99.99
2018-03-23T06:53:34.094Z,99.99
2018-03-23T06:54:33.991Z,99.99
2018-03-23T06:55:33.887Z,99.99
2018-03-23T06:56:33.784Z,99.99
2018-03-23T06:57:33.685Z,99.99
2018-03-23T06:58:33.578Z,99.99
2018-03-23T06:59:33.475Z,99.99
2018-03-23T07:00:33.375Z,99.99
2018-03-23T07:01:33.268Z,99.99
2018-03-23T07:02:33.165Z,99.99
2018-03-23T07:03:33.061Z,99.99
2018-03-23T07:04:32.957Z,99.99
2018-03-23T07:05:32.856Z,99.99
2018-03-23T07:06:32.756Z,99.99
2018-03-23T07:07:32.648Z,99.99
2018-03-23T07:08:32.544Z,99.99
2018-03-23T07:09:32.442Z,99.99
2018-03-23T07:10:32.338Z,99.99
2018-03-23T07:11:32.234Z,99.99
2018-03-23T07:12:32.132Z,99.99
2018-03-23T07:13:32.029Z,99.99
2018-03-23T07:14:31.924Z,99.99
2018-03-23T07:15:31.862Z,99.99
2018-03-23T07:16:31.718Z,99.99
2018-03-23T07:17:31.615Z,99.99
2018-03-23T07:18:31.512Z,99.99
2018-03-23T07:19:31.418Z,99.99
2018-03-23T07:20:31.305Z,99.99
2018-03-23T07:21:31.202Z,99.99
2018-03-23T07:22:31.099Z,99.99
2018-03-23T07:23:30.995Z,99.99
2018-03-23T07:24:30.892Z,99.99
2018-03-23T07:25:30.789Z,99.99
2018-03-23T07:26:30.685Z,99.99
2018-03-23T07:27:30.581Z,99.99
2018-03-23T07:28:30.479Z,99.99
2018-03-23T07:29:30.364Z,99.99
2018-03-23T07:30:30.263Z,99.99
2018-03-23T07:31:30.168Z,99.99
2018-03-23T07:32:30.065Z,99.99
2018-03-23T07:33:29.950Z,99.99
2018-03-23T07:34:29.846Z,99.99
2018-03-23T07:35:29.743Z,99.99
2018-03-23T07:36:29.640Z,99.99
2018-03-23T07:37:29.536Z,99.99
2018-03-23T07:38:29.433Z,99.99
2018-03-23T07:39:29.329Z,99.99
2018-03-23T07:40:29.226Z,99.99
2018-03-23T07:41:29.122Z,99.99
2018-03-23T07:42:29.020Z,99.99
2018-03-23T07:43:28.928Z,99.99
2018-03-23T07:44:28.813Z,99.99
2018-03-23T07:45:28.711Z,99.99
2018-03-23T07:46:28.610Z,99.99
2018-03-23T07:47:28.503Z,99.99
2018-03-23T07:48:28.412Z,99.72
2018-03-23T07:49:28.297Z,99.63
2018-03-23T07:50:28.212Z,99.99
2018-03-23T07:51:28.101Z,99.82
2018-03-23T07:52:27.999Z,99.63
2018-03-23T07:53:27.895Z,99.44
2018-03-23T07:54:27.792Z,99.25
2018-03-23T07:55:27.689Z,98.87
2018-03-23T07:56:27.585Z,99.99
2018-03-23T07:57:27.482Z,99.99
2018-03-23T07:58:27.379Z,98.87
2018-03-23T07:59:27.276Z,99.91
2018-03-23T08:00:27.172Z,99.99
2018-03-23T08:01:27.068Z,99.99
2018-03-23T08:02:26.970Z,99.99
2018-03-23T08:03:26.863Z,99.99
2018-03-23T08:04:26.761Z,99.99
2018-03-23T08:05:26.658Z,99.99
2018-03-23T08:06:26.552Z,99.99
2018-03-23T08:07:26.449Z,99.99
2018-03-23T08:08:26.346Z,99.99
2018-03-23T08:09:26.242Z,99.99
2018-03-23T08:10:26.139Z,99.99
2018-03-23T08:11:26.047Z,99.99
2018-03-23T08:12:25.943Z,99.99
2018-03-23T08:13:25.840Z,99.99
2018-03-23T08:14:25.737Z,99.99
2018-03-23T08:15:25.637Z,99.72
2018-03-23T08:16:25.531Z,99.63
2018-03-23T08:17:25.427Z,99.99
2018-03-23T08:18:25.325Z,99.99
2018-03-23T08:19:25.221Z,99.99
2018-03-23T08:20:25.117Z,99.72
2018-03-23T08:21:25.015Z,99.44
2018-03-23T08:22:24.912Z,99.99
2018-03-23T08:23:24.822Z,99.99
2018-03-23T08:24:24.703Z,99.99
2018-03-23T08:25:24.601Z,99.99
2018-03-23T08:26:24.497Z,99.99
2018-03-23T08:27:24.395Z,99.99
2018-03-23T08:28:24.304Z,99.99
2018-03-23T08:29:24.189Z,99.99
2018-03-23T08:30:24.098Z,99.99
2018-03-23T08:31:23.994Z,99.99
2018-03-23T08:32:23.892Z,99.25
2018-03-23T08:33:23.788Z,99.99
2018-03-23T08:34:23.684Z,99.99
2018-03-23T08:35:23.580Z,99.15
2018-03-23T08:36:23.531Z,99.99
2018-03-23T08:37:23.375Z,99.15
2018-03-23T08:38:23.272Z,99.34
2018-03-23T08:39:23.168Z,99.99
2018-03-23T08:40:23.064Z,99.99
2018-03-23T08:41:22.961Z,99.99
2018-03-23T08:42:22.858Z,99.99
2018-03-23T08:43:22.765Z,99.99
2018-03-23T08:44:22.673Z,99.99
2018-03-23T08:45:22.559Z,99.15
2018-03-23T08:46:22.456Z,99.25
2018-03-23T08:47:22.353Z,99.99
2018-03-23T08:48:22.254Z,99.82
2018-03-23T08:49:22.146Z,99.06
2018-03-23T08:50:22.045Z,99.15
2018-03-23T08:51:21.941Z,99.06
2018-03-23T08:52:21.836Z,98.96
2018-03-23T08:53:21.733Z,99.99
2018-03-23T08:54:21.645Z,99.99
2018-03-23T08:55:21.527Z,99.99
2018-03-23T08:56:21.426Z,99.99
2018-03-23T08:57:21.333Z,99.99
2018-03-23T08:58:21.231Z,99.99
2018-03-23T08:59:21.131Z,99.99
2018-03-23T09:00:21.023Z,99.99
2018-03-23T09:01:20.920Z,99.99
2018-03-23T09:02:20.816Z,99.99
2018-03-23T09:03:20.713Z,99.06
2018-03-23T09:04:20.610Z,98.77
2018-03-23T09:05:20.505Z,99.34
2018-03-23T09:06:20.402Z,99.99
2018-03-23T09:07:20.299Z,99.20
2018-03-23T09:08:20.210Z,99.87
2018-03-23T09:09:20.105Z,99.01
2018-03-23T09:10:20.004Z,98.35
2018-03-23T09:11:19.898Z,98.73
2018-03-23T09:12:19.795Z,98.44
2018-03-23T09:13:19.692Z,97.78
2018-03-23T09:14:19.588Z,98.35
2018-03-23T09:15:19.493Z,98.82
2018-03-23T09:16:19.389Z,98.82
2018-03-23T09:17:19.278Z,98.21
2018-03-23T09:18:19.176Z,98.77
2018-03-23T09:19:19.073Z,98.58
2018-03-23T09:20:18.982Z,98.02
2018-03-23T09:21:18.878Z,99.06
2018-03-23T09:22:18.775Z,99.44
2018-03-23T09:23:18.673Z,99.87
2018-03-23T09:24:18.568Z,99.01
2018-03-23T09:25:18.465Z,98.96
2018-03-23T09:26:18.363Z,97.21
2018-03-23T09:27:18.259Z,97.69
2018-03-23T09:28:18.155Z,99.01
2018-03-23T09:29:18.052Z,97.97
2018-03-23T09:30:17.962Z,97.02
2018-03-23T09:31:17.857Z,96.36
2018-03-23T09:32:17.754Z,95.74
2018-03-23T09:33:17.651Z,96.26
2018-03-23T09:34:17.547Z,96.64
2018-03-23T09:35:17.445Z,96.12
2018-03-23T09:36:17.340Z,97.31
2018-03-23T09:37:17.246Z,99.87
2018-03-23T09:38:17.134Z,97.88
2018-03-23T09:39:17.030Z,96.45
2018-03-23T09:40:16.928Z,95.22
2018-03-23T09:41:16.824Z,95.60
2018-03-23T09:42:16.722Z,95.79
2018-03-23T09:43:16.632Z,96.36
2018-03-23T09:44:16.527Z,97.31
2018-03-23T09:45:16.424Z,98.16
2018-03-23T09:46:16.321Z,98.54
2018-03-23T09:47:16.217Z,99.11
2018-03-23T09:48:16.115Z,98.35
2018-03-23T09:49:16.011Z,97.69
2018-03-23T09:50:15.907Z,96.55
2018-03-23T09:51:15.806Z,96.36
2018-03-23T09:52:15.705Z,96.55
2018-03-23T09:53:15.598Z,95.22
2018-03-23T09:54:15.505Z,94.46
2018-03-23T09:55:15.404Z,95.79
2018-03-23T09:56:15.313Z,96.73
2018-03-23T09:57:15.205Z,95.60
2018-03-23T09:58:15.092Z,94.18
2018-03-23T09:59:14.989Z,94.93
2018-03-23T10:00:14.885Z,96.36
2018-03-23T10:01:14.783Z,97.69
2018-03-23T10:02:14.680Z,98.35
2018-03-23T10:03:14.578Z,98.25
2018-03-23T10:04:14.486Z,98.25
2018-03-23T10:05:14.385Z,98.35
2018-03-23T10:06:14.280Z,97.31
2018-03-23T10:07:14.176Z,96.64
2018-03-23T10:08:14.076Z,96.73
2018-03-23T10:09:13.970Z,97.12
2018-03-23T10:10:13.866Z,97.31
2018-03-23T10:11:13.763Z,96.55
2018-03-23T10:12:13.660Z,96.26
2018-03-23T10:13:13.568Z,95.69
2018-03-23T10:14:13.464Z,95.69
2018-03-23T10:15:13.362Z,95.74
2018-03-23T10:16:13.265Z,95.69
2018-03-23T10:17:13.155Z,95.60
2018-03-23T10:18:13.064Z,96.31
2018-03-23T10:19:12.951Z,95.65
2018-03-23T10:20:12.845Z,96.17
2018-03-23T10:21:12.787Z,97.50
2018-03-23T10:22:12.640Z,98.11
2018-03-23T10:23:12.535Z,96.22
2018-03-23T10:24:12.431Z,96.97
2018-03-23T10:25:12.328Z,97.64
2018-03-23T10:26:12.225Z,96.12
2018-03-23T10:27:12.123Z,96.50
2018-03-23T10:28:12.031Z,96.88
2018-03-23T10:29:11.962Z,98.11
2018-03-23T10:30:11.824Z,97.16
2018-03-23T10:31:11.722Z,96.50
2018-03-23T10:32:11.618Z,96.12
2018-03-23T10:33:11.515Z,96.50
2018-03-23T10:34:11.411Z,96.88
2018-03-23T10:35:11.309Z,97.73
2018-03-23T10:36:11.205Z,99.25
2018-03-23T10:37:11.102Z,99.15
2018-03-23T10:38:10.998Z,99.06
2018-03-23T10:39:10.898Z,98.39
2018-03-23T10:40:10.791Z,98.96
2018-03-23T10:41:10.696Z,99.99
2018-03-23T10:42:10.584Z,99.99
2018-03-23T10:43:10.481Z,99.63
2018-03-23T10:44:10.378Z,99.15
2018-03-23T10:45:10.276Z,98.87
2018-03-23T10:46:10.172Z,99.34
2018-03-23T10:47:10.069Z,99.06
2018-03-23T10:48:09.965Z,99.34
2018-03-23T10:49:09.862Z,99.34
2018-03-23T10:50:09.759Z,99.34
2018-03-23T10:51:09.655Z,99.99
2018-03-23T10:52:09.572Z,99.39
2018-03-23T10:53:09.460Z,99.77
2018-03-23T10:54:09.346Z,99.99
2018-03-23T10:55:09.253Z,99.99
2018-03-23T10:56:09.152Z,99.58
2018-03-23T10:57:09.063Z,99.39
2018-03-23T10:58:08.943Z,99.63
2018-03-23T10:59:08.839Z,98.77
2018-03-23T11:00:08.736Z,99.25
2018-03-23T11:01:08.634Z,98.87
2018-03-23T11:02:08.530Z,99.15
2018-03-23T11:03:08.431Z,99.06
2018-03-23T11:04:08.323Z,98.77
2018-03-23T11:05:08.219Z,99.44
2018-03-23T11:06:08.116Z,99.82
2018-03-23T11:07:08.013Z,99.34
2018-03-23T11:08:07.910Z,99.25
2018-03-23T11:09:07.807Z,99.15
2018-03-23T11:10:07.706Z,99.15
2018-03-23T11:11:07.600Z,99.63
2018-03-23T11:12:07.497Z,98.96
2018-03-23T11:13:07.393Z,99.44
2018-03-23T11:14:07.292Z,98.96
2018-03-23T11:15:07.187Z,99.44
2018-03-23T11:16:07.084Z,99.99
2018-03-23T11:17:06.980Z,99.99
2018-03-23T11:18:06.878Z,99.82
2018-03-23T11:19:06.787Z,99.25
2018-03-23T11:20:06.675Z,99.53
2018-03-23T11:21:06.567Z,99.34
2018-03-23T11:22:06.467Z,99.44
2018-03-23T11:23:06.360Z,99.99
2018-03-23T11:24:06.261Z,99.99
2018-03-23T11:25:06.153Z,99.63
2018-03-23T11:26:06.051Z,99.06
2018-03-23T11:27:05.947Z,99.63
2018-03-23T11:28:05.845Z,99.99
2018-03-23T11:29:05.740Z,99.99
2018-03-23T11:30:05.637Z,99.63
2018-03-23T11:31:05.534Z,99.99
2018-03-23T11:32:05.431Z,99.99
2018-03-23T11:33:05.332Z,99.99
2018-03-23T11:34:05.224Z,99.91
2018-03-23T11:35:05.125Z,99.99
2018-03-23T11:36:05.017Z,99.99
2018-03-23T11:37:04.917Z,99.99
2018-03-23T11:38:04.810Z,99.99
2018-03-23T11:39:04.707Z,99.99
2018-03-23T11:40:04.606Z,99.99
2018-03-23T11:41:04.500Z,99.99
2018-03-23T11:42:04.397Z,99.99
2018-03-23T11:43:04.294Z,99.99
2018-03-23T11:44:04.191Z,99.99
2018-03-23T11:45:04.087Z,99.99
2018-03-23T11:46:03.984Z,99.99
2018-03-23T11:47:03.880Z,99.99
2018-03-23T11:48:03.777Z,99.99
2018-03-23T11:49:03.679Z,99.99
2018-03-23T11:50:03.573Z,99.99
2018-03-23T11:51:03.467Z,99.99
2018-03-23T11:52:03.364Z,99.99
2018-03-23T11:53:03.261Z,99.99
2018-03-23T11:54:03.159Z,99.99
2018-03-23T11:55:03.055Z,99.99
2018-03-23T11:56:02.951Z,99.99
2018-03-23T11:57:02.847Z,99.99
2018-03-23T11:58:02.744Z,99.99
2018-03-23T11:59:02.640Z,99.99
2018-03-23T12:00:02.537Z,99.99
2018-03-23T12:01:02.434Z,99.99
2018-03-23T12:02:02.360Z,99.99
2018-03-23T12:03:02.241Z,99.99
2018-03-23T12:04:02.127Z,99.99
2018-03-23T12:05:02.024Z,99.99
2018-03-23T12:06:01.917Z,99.99
2018-03-23T12:07:01.815Z,99.99
2018-03-23T12:08:01.712Z,99.99
2018-03-23T12:09:01.607Z,99.99
2018-03-23T12:10:01.504Z,99.99
2018-03-23T12:11:01.401Z,99.99
2018-03-23T12:12:01.297Z,99.99
2018-03-23T12:13:01.194Z,99.99
2018-03-23T12:14:01.091Z,99.99
2018-03-23T12:15:00.988Z,99.99
2018-03-23T12:16:00.884Z,99.99
2018-03-23T12:17:00.780Z,99.99
2018-03-23T12:18:00.678Z,99.99
2018-03-23T12:19:00.578Z,99.99
2018-03-23T12:20:00.479Z,99.99
2018-03-23T12:21:00.368Z,99.99
2018-03-23T12:22:00.264Z,99.99
2018-03-23T12:23:00.163Z,99.99
2018-03-23T12:24:00.058Z,99.99
2018-03-23T12:24:59.954Z,99.99
2018-03-23T12:25:59.851Z,99.99
2018-03-23T12:26:59.748Z,99.99
2018-03-23T12:27:59.644Z,99.99
2018-03-23T12:28:59.570Z,99.99
2018-03-23T12:29:59.442Z,99.99
2018-03-23T12:30:59.334Z,99.99
2018-03-23T12:31:59.261Z,99.99
2018-03-23T12:32:59.128Z,99.99
2018-03-23T12:33:59.041Z,99.99
2018-03-23T12:34:58.960Z,99.99
2018-03-23T12:35:58.817Z,99.99
2018-03-23T12:36:58.703Z,99.99
2018-03-23T12:37:58.619Z,99.99
2018-03-23T12:38:58.496Z,99.99
2018-03-23T12:39:58.404Z,99.99
2018-03-23T12:40:58.289Z,99.99
2018-03-23T12:41:58.186Z,99.99
2018-03-23T12:42:58.083Z,99.99
2018-03-23T12:43:57.982Z,99.99
2018-03-23T12:44:57.876Z,99.99
2018-03-23T12:45:57.773Z,99.99
2018-03-23T12:46:57.670Z,99.99
2018-03-23T12:47:57.566Z,99.99
2018-03-23T12:48:57.464Z,99.99
2018-03-23T12:49:57.360Z,99.99
2018-03-23T12:50:57.308Z,99.99